Time;durP1;ratioP1;P1;durP2;ratioP2;P2;SDS_P1;SDS_P2;PMS_P1;PMS_P2;Temp;Humidity;BMP_temperature;BMP_pressure;BME280_temperature;BME280_humidity;BME280_pressure;Samples;Min_cycle;Max_cycle;Signal;HPM_P1;HPM_P2
2021/11/16 00:01:00;;;;;;;36.83;23.03;;;8.00;99.90;;;;;;5048997;28;20579;-67
2021/11/16 00:03:27;;;;;;;30.87;21.27;;;8.00;99.90;;;;;;5051322;28;20444;-69
2021/11/16 00:05:55;;;;;;;28.03;19.97;;;8.00;99.90;;;;;;5051593;28;20457;-68
2021/11/16 00:08:22;;;;;;;31.87;20.07;;;8.00;99.90;;;;;;5050030;28;20502;-68
2021/11/16 00:10:49;;;;;;;29.83;20.77;;;8.00;99.90;;;;;;5051920;28;20459;-68
2021/11/16 00:13:16;;;;;;;29.50;21.07;;;8.00;99.90;;;;;;5050997;28;20539;-68
2021/11/16 00:15:44;;;;;;;33.33;23.40;;;8.00;99.90;;;;;;5051662;28;20535;-69
2021/11/16 00:18:12;;;;;;;30.50;22.53;;;7.90;99.90;;;;;;5050165;28;20447;-69
2021/11/16 00:20:42;;;;;;;31.60;19.17;;;8.00;99.90;;;;;;5051440;28;20480;-68
2021/11/16 00:23:16;;;;;;;32.43;22.53;;;7.90;99.90;;;;;;5051115;28;20452;-69
2021/11/16 00:25:43;;;;;;;33.17;21.27;;;8.00;99.90;;;;;;5051757;28;20865;-69
2021/11/16 00:28:10;;;;;;;32.23;21.50;;;8.00;99.90;;;;;;5050042;28;20871;-68
2021/11/16 00:30:38;;;;;;;34.40;21.00;;;8.00;99.90;;;;;;5051441;28;20522;-69
2021/11/16 00:33:05;;;;;;;33.07;21.67;;;7.90;99.90;;;;;;5051583;28;20461;-68
2021/11/16 00:35:37;;;;;;;31.27;21.60;;;7.90;99.90;;;;;;5051053;28;20892;-68
2021/11/16 00:38:04;;;;;;;28.80;20.03;;;7.80;99.90;;;;;;5050415;28;20540;-68
2021/11/16 00:40:32;;;;;;;31.80;20.97;;;7.80;99.90;;;;;;5051206;28;20512;-68
2021/11/16 00:42:59;;;;;;;34.97;21.70;;;7.80;99.90;;;;;;5051153;28;20448;-69
2021/11/16 00:45:27;;;;;;;33.60;21.50;;;7.80;99.90;;;;;;5051572;28;20468;-68
2021/11/16 00:47:55;;;;;;;39.50;23.97;;;7.80;99.90;;;;;;5050623;28;20473;-67
2021/11/16 00:50:22;;;;;;;35.30;22.27;;;7.80;99.90;;;;;;5051351;28;20454;-68
2021/11/16 00:52:49;;;;;;;34.80;23.77;;;7.80;99.90;;;;;;5050996;28;20448;-69
2021/11/16 00:55:17;;;;;;;32.23;22.00;;;7.80;99.90;;;;;;5050864;28;20445;-67
2021/11/16 00:57:45;;;;;;;35.53;23.70;;;7.70;99.90;;;;;;5049516;28;20460;-68
2021/11/16 01:00:15;;;;;;;33.87;22.13;;;7.80;99.90;;;;;;5050471;28;20476;-68
2021/11/16 01:02:42;;;;;;;29.97;22.13;;;7.80;99.90;;;;;;5050574;28;21142;-68
2021/11/16 01:05:12;;;;;;;30.97;21.87;;;7.80;99.90;;;;;;5050561;28;20448;-68
2021/11/16 01:07:39;;;;;;;35.60;24.27;;;7.80;99.90;;;;;;5049467;28;20469;-68
2021/11/16 01:10:07;;;;;;;37.03;24.27;;;7.80;99.90;;;;;;5050217;28;20444;-68
2021/11/16 01:12:35;;;;;;;33.90;22.87;;;7.80;99.90;;;;;;5050543;28;20672;-68
2021/11/16 01:15:05;;;;;;;37.20;23.17;;;7.80;99.90;;;;;;5050251;28;20444;-69
2021/11/16 01:17:31;;;;;;;35.07;22.40;;;7.80;99.90;;;;;;5049315;28;20984;-68
2021/11/16 01:19:58;;;;;;;38.00;22.57;;;7.80;99.90;;;;;;5050314;28;20453;-69
2021/11/16 01:22:25;;;;;;;29.53;21.60;;;7.80;99.90;;;;;;5048596;28;20455;-69
2021/11/16 01:24:53;;;;;;;34.83;22.20;;;7.80;99.90;;;;;;5049353;28;20857;-69
2021/11/16 01:27:21;;;;;;;30.73;21.23;;;7.80;99.90;;;;;;5048759;28;20487;-70
2021/11/16 01:29:49;;;;;;;32.60;21.50;;;7.80;99.90;;;;;;5049871;28;20452;-68
2021/11/16 01:32:32;;;;;;;34.00;22.83;;;7.70;99.90;;;;;;5049939;28;20447;-68
2021/11/16 01:34:59;;;;;;;31.73;20.43;;;7.70;99.90;;;;;;5050335;28;20448;-70
2021/11/16 01:37:25;;;;;;;38.17;23.60;;;7.70;99.90;;;;;;5048685;28;20468;-68
2021/11/16 01:39:53;;;;;;;29.33;20.30;;;7.70;99.90;;;;;;5050138;28;20457;-68
2021/11/16 01:42:21;;;;;;;35.63;20.70;;;7.70;99.90;;;;;;5049911;28;20530;-67
2021/11/16 01:44:49;;;;;;;30.60;21.23;;;7.70;99.90;;;;;;5050190;28;20487;-67
2021/11/16 01:47:17;;;;;;;30.13;20.10;;;7.70;99.90;;;;;;5048707;28;20494;-68
2021/11/16 01:49:47;;;;;;;28.73;21.10;;;7.70;99.90;;;;;;5050136;28;20964;-67
2021/11/16 01:52:14;;;;;;;31.57;22.30;;;7.70;99.90;;;;;;5050141;28;20445;-68
2021/11/16 01:54:41;;;;;;;37.60;22.87;;;7.70;99.90;;;;;;5047697;28;20811;-68
2021/11/16 01:57:08;;;;;;;32.97;21.43;;;7.70;99.90;;;;;;5048668;28;20822;-67
2021/11/16 01:59:35;;;;;;;26.93;18.80;;;7.70;99.90;;;;;;5049958;28;20436;-68
2021/11/16 02:02:04;;;;;;;29.50;20.60;;;7.70;99.90;;;;;;5049524;28;20484;-68
2021/11/16 02:04:32;;;;;;;30.13;22.40;;;7.70;99.90;;;;;;5049791;28;20448;-68
2021/11/16 02:07:00;;;;;;;33.33;21.77;;;7.70;99.90;;;;;;5048439;28;21289;-68
2021/11/16 02:09:26;;;;;;;29.67;21.70;;;7.70;99.90;;;;;;5049915;28;20448;-67
2021/11/16 02:11:54;;;;;;;36.27;21.93;;;7.60;99.90;;;;;;5049782;28;20448;-67
2021/11/16 02:14:21;;;;;;;33.83;22.03;;;7.70;99.90;;;;;;5049649;28;20441;-68
2021/11/16 02:16:48;;;;;;;32.13;21.70;;;7.70;99.90;;;;;;5048329;28;20523;-68
2021/11/16 02:19:18;;;;;;;33.23;21.47;;;7.70;99.90;;;;;;5049462;28;20455;-68
2021/11/16 02:21:47;;;;;;;32.77;21.33;;;7.70;99.90;;;;;;5049619;28;20483;-66
2021/11/16 02:24:16;;;;;;;34.97;22.40;;;7.70;99.90;;;;;;5049328;28;20452;-67
2021/11/16 02:26:43;;;;;;;29.93;22.17;;;7.70;99.90;;;;;;5048498;28;20486;-68
2021/11/16 02:29:10;;;;;;;40.67;23.10;;;7.70;99.90;;;;;;5049475;28;20467;-68
2021/11/16 02:31:38;;;;;;;32.37;22.10;;;7.60;99.90;;;;;;5049750;28;20539;-68
2021/11/16 02:34:05;;;;;;;34.87;21.00;;;7.60;99.90;;;;;;5049381;28;20452;-68
2021/11/16 02:36:34;;;;;;;33.20;23.23;;;7.50;99.90;;;;;;5051181;28;20482;-68
2021/11/16 02:39:03;;;;;;;34.47;22.70;;;7.50;99.90;;;;;;5053215;28;20955;-70
2021/11/16 02:41:31;;;;;;;33.33;22.60;;;7.50;99.90;;;;;;5053399;28;20480;-68
2021/11/16 02:44:00;;;;;;;34.23;22.33;;;7.50;99.90;;;;;;5053202;28;20483;-67
2021/11/16 02:46:29;;;;;;;36.87;22.17;;;7.60;99.90;;;;;;5051903;28;20495;-68
2021/11/16 02:48:56;;;;;;;34.53;23.20;;;7.50;99.90;;;;;;5052527;28;20440;-67
2021/11/16 02:51:23;;;;;;;36.53;21.13;;;7.50;99.90;;;;;;5053010;28;20456;-68
2021/11/16 02:53:50;;;;;;;42.03;25.13;;;7.50;99.90;;;;;;5052749;28;20495;-68
2021/11/16 02:56:18;;;;;;;41.57;24.53;;;7.50;99.90;;;;;;5051923;28;21208;-68
2021/11/16 02:58:45;;;;;;;35.83;23.67;;;7.50;99.90;;;;;;5052348;28;20464;-68
2021/11/16 03:01:16;;;;;;;38.63;24.90;;;7.40;99.90;;;;;;5052306;28;20498;-68
2021/11/16 03:03:44;;;;;;;36.20;24.63;;;7.40;99.90;;;;;;5053094;28;20451;-68
2021/11/16 03:06:12;;;;;;;39.17;24.40;;;7.40;99.90;;;;;;5052669;28;20648;-67
2021/11/16 03:08:39;;;;;;;34.47;22.67;;;7.40;99.90;;;;;;5052035;28;20444;-68
2021/11/16 03:11:10;;;;;;;38.50;25.50;;;7.40;99.90;;;;;;5052402;28;20455;-67
2021/11/16 03:13:40;;;;;;;34.53;23.50;;;7.40;99.90;;;;;;5052526;28;20467;-68
2021/11/16 03:16:11;;;;;;;37.30;24.23;;;7.40;99.90;;;;;;5052339;28;20595;-68
2021/11/16 03:18:38;;;;;;;45.43;26.27;;;7.40;99.90;;;;;;5051665;28;20916;-67
2021/11/16 03:21:05;;;;;;;40.27;25.00;;;7.40;99.90;;;;;;5052502;28;20590;-68
2021/11/16 03:23:32;;;;;;;36.83;23.17;;;7.50;99.90;;;;;;5052348;28;21184;-68
2021/11/16 03:26:02;;;;;;;40.77;25.00;;;7.50;99.90;;;;;;5052263;28;20810;-68
2021/11/16 03:28:31;;;;;;;38.63;24.03;;;7.40;99.90;;;;;;5051119;28;20452;-68
2021/11/16 03:31:08;;;;;;;38.20;25.60;;;7.30;99.90;;;;;;5052371;28;20935;-68
2021/11/16 03:33:36;;;;;;;37.40;22.13;;;7.30;99.90;;;;;;5052471;28;20448;-69
2021/11/16 03:36:03;;;;;;;36.67;23.23;;;7.30;99.90;;;;;;5052269;28;20618;-68
2021/11/16 03:38:30;;;;;;;37.30;24.37;;;7.30;99.90;;;;;;5050693;28;20550;-68
2021/11/16 03:40:57;;;;;;;39.43;24.37;;;7.40;99.90;;;;;;5051950;28;20481;-69
2021/11/16 03:43:24;;;;;;;35.87;23.37;;;7.40;99.90;;;;;;5051899;28;20452;-69
2021/11/16 03:45:52;;;;;;;39.20;25.27;;;7.40;99.90;;;;;;5052031;28;20456;-68
2021/11/16 03:48:21;;;;;;;40.07;24.40;;;7.40;99.90;;;;;;5049788;28;20444;-67
2021/11/16 03:50:48;;;;;;;40.33;24.13;;;7.30;99.90;;;;;;5052149;28;20456;-67
2021/11/16 03:53:16;;;;;;;40.87;25.47;;;7.30;99.90;;;;;;5052007;28;20531;-67
2021/11/16 03:55:44;;;;;;;40.20;26.07;;;7.30;99.90;;;;;;5051823;28;20954;-68
2021/11/16 03:58:14;;;;;;;40.27;25.10;;;7.20;99.90;;;;;;5050865;28;20453;-68
2021/11/16 04:00:45;;;;;;;41.23;25.67;;;7.20;99.90;;;;;;5052162;28;20959;-68
2021/11/16 04:03:12;;;;;;;40.37;25.17;;;7.20;99.90;;;;;;5052523;28;20449;-68
2021/11/16 04:05:41;;;;;;;38.27;23.57;;;7.20;99.90;;;;;;5052110;28;21045;-69
2021/11/16 04:08:08;;;;;;;38.90;23.37;;;7.20;99.90;;;;;;5050687;28;20452;-67
2021/11/16 04:10:36;;;;;;;43.10;25.00;;;7.30;99.90;;;;;;5051716;28;20458;-68
2021/11/16 04:13:03;;;;;;;36.77;23.83;;;7.20;99.90;;;;;;5051618;28;20997;-69
2021/11/16 04:15:32;;;;;;;38.00;25.00;;;7.20;99.90;;;;;;5051340;28;20949;-68
2021/11/16 04:18:00;;;;;;;43.77;27.97;;;7.20;99.90;;;;;;5050471;28;20626;-69
2021/11/16 04:20:30;;;;;;;43.27;24.60;;;7.30;99.90;;;;;;5051116;28;20449;-68
2021/11/16 04:22:58;;;;;;;39.20;23.93;;;7.30;99.90;;;;;;5051635;28;20487;-68
2021/11/16 04:25:26;;;;;;;37.73;23.77;;;7.40;99.90;;;;;;5051292;28;20966;-68
2021/11/16 04:27:54;;;;;;;40.40;27.30;;;7.30;99.90;;;;;;5050351;28;20492;-69
2021/11/16 04:30:23;;;;;;;39.40;24.13;;;7.20;99.90;;;;;;5051330;28;20440;-67
2021/11/16 04:32:50;;;;;;;40.30;25.47;;;7.20;99.90;;;;;;5051428;28;20443;-68
2021/11/16 04:35:17;;;;;;;43.60;27.43;;;7.20;99.90;;;;;;5051169;28;20801;-68
2021/11/16 04:37:45;;;;;;;40.20;25.43;;;7.20;99.90;;;;;;5050420;28;20468;-68
2021/11/16 04:40:16;;;;;;;34.43;23.27;;;7.20;99.90;;;;;;5051289;28;20943;-68
2021/11/16 04:42:43;;;;;;;44.37;25.57;;;7.10;99.90;;;;;;5051302;28;20575;-67
2021/11/16 04:45:16;;;;;;;42.53;25.37;;;7.20;99.90;;;;;;5051168;28;20506;-67
2021/11/16 04:47:49;;;;;;;35.93;23.60;;;7.10;99.90;;;;;;5049743;28;20479;-67
2021/11/16 04:50:26;;;;;;;34.87;23.63;;;7.10;99.90;;;;;;5051051;28;20884;-69
2021/11/16 04:53:01;;;;;;;40.07;26.30;;;7.10;99.90;;;;;;5051105;28;20802;-68
2021/11/16 04:55:46;;;;;;;44.93;25.43;;;7.20;99.90;;;;;;5051185;28;21098;-69
2021/11/16 05:03:43;;;;;;;40.40;25.93;;;7.20;99.90;;;;;;5050825;28;20431;-69
2021/11/16 05:06:10;;;;;;;44.93;26.80;;;7.20;99.90;;;;;;5050502;28;20603;-67
2021/11/16 05:08:39;;;;;;;44.73;26.77;;;7.20;99.90;;;;;;5049922;28;20445;-68
2021/11/16 05:11:08;;;;;;;44.00;26.50;;;7.20;99.90;;;;;;5050820;28;20456;-69
2021/11/16 05:13:35;;;;;;;43.87;27.13;;;7.10;99.90;;;;;;5051210;28;20654;-69
2021/11/16 05:16:03;;;;;;;41.50;25.20;;;7.10;99.90;;;;;;5051026;28;20477;-68
2021/11/16 05:18:30;;;;;;;37.23;23.87;;;7.10;99.90;;;;;;5049373;28;20531;-68
2021/11/16 05:20:57;;;;;;;44.43;26.77;;;7.10;99.90;;;;;;5050477;28;21071;-69
2021/11/16 05:23:24;;;;;;;40.47;24.83;;;7.10;99.90;;;;;;5050714;28;20555;-68
2021/11/16 05:25:51;;;;;;;40.40;25.43;;;7.10;99.90;;;;;;5050535;28;20480;-67
2021/11/16 05:28:21;;;;;;;38.90;23.93;;;7.10;99.90;;;;;;5049140;28;20440;-67
2021/11/16 05:30:48;;;;;;;42.93;23.67;;;7.10;99.90;;;;;;5050241;28;20456;-68
2021/11/16 05:33:15;;;;;;;43.20;28.37;;;7.10;99.90;;;;;;5050003;28;20450;-69
2021/11/16 05:35:43;;;;;;;44.53;28.03;;;7.20;99.90;;;;;;5050358;28;20471;-68
2021/11/16 05:38:22;;;;;;;40.03;25.27;;;7.10;99.90;;;;;;5049235;28;20452;-69
2021/11/16 05:40:49;;;;;;;44.93;27.17;;;7.10;99.90;;;;;;5050328;28;20536;-68
2021/11/16 05:43:15;;;;;;;43.20;26.70;;;7.10;99.90;;;;;;5049898;28;20480;-68
2021/11/16 05:45:44;;;;;;;42.53;25.70;;;7.10;99.90;;;;;;5049811;28;20906;-67
2021/11/16 05:48:11;;;;;;;43.00;26.60;;;7.10;99.90;;;;;;5048934;28;20960;-68
2021/11/16 05:50:38;;;;;;;39.20;24.73;;;7.10;99.90;;;;;;5050137;28;20462;-68
2021/11/16 05:53:05;;;;;;;42.57;26.10;;;7.10;99.90;;;;;;5047980;28;20437;-68
2021/11/16 05:55:32;;;;;;;41.93;24.90;;;7.00;99.90;;;;;;5049778;28;21258;-68
2021/11/16 05:57:59;;;;;;;43.67;26.53;;;7.00;99.90;;;;;;5048204;28;20465;-68
2021/11/16 06:00:27;;;;;;;41.83;26.63;;;7.00;99.90;;;;;;5049210;28;20479;-68
2021/11/16 06:02:55;;;;;;;41.23;24.73;;;7.00;99.90;;;;;;5049704;28;20488;-69
2021/11/16 06:05:22;;;;;;;37.57;24.13;;;7.00;99.90;;;;;;5049641;28;20448;-67
2021/11/16 06:07:49;;;;;;;46.63;26.70;;;7.00;99.90;;;;;;5040454;28;21126;-68
2021/11/16 06:10:16;;;;;;;43.10;26.60;;;7.00;99.90;;;;;;5044111;28;20452;-67
2021/11/16 06:12:43;;;;;;;36.43;23.13;;;7.00;99.90;;;;;;5049890;28;20498;-68
2021/11/16 06:15:10;;;;;;;42.07;25.30;;;6.90;99.90;;;;;;5047472;28;20441;-67
2021/11/16 06:17:42;;;;;;;41.10;25.83;;;7.00;99.90;;;;;;5051750;28;21314;-67
2021/11/16 06:20:11;;;;;;;44.83;25.57;;;6.90;99.90;;;;;;5045091;28;21102;-64
2021/11/16 06:22:38;;;;;;;39.70;24.57;;;7.00;99.90;;;;;;5051291;28;20476;-64
2021/11/16 06:25:06;;;;;;;34.50;22.53;;;6.90;99.90;;;;;;5052503;28;20451;-64
2021/11/16 06:27:33;;;;;;;35.13;22.90;;;6.90;99.90;;;;;;5051870;28;20464;-62
2021/11/16 06:30:00;;;;;;;37.17;24.50;;;6.90;99.90;;;;;;5053469;28;20448;-65
2021/11/16 06:32:27;;;;;;;33.67;21.53;;;6.80;99.90;;;;;;5053529;28;20482;-65
2021/11/16 06:34:53;;;;;;;31.30;21.13;;;6.80;99.90;;;;;;5053369;28;20436;-63
2021/11/16 06:37:21;;;;;;;34.10;21.47;;;6.80;99.90;;;;;;5051816;28;20475;-64
2021/11/16 06:39:48;;;;;;;35.30;21.67;;;6.80;99.90;;;;;;5053111;28;21231;-63
2021/11/16 06:42:15;;;;;;;36.53;22.53;;;6.80;99.90;;;;;;5052824;28;20476;-63
2021/11/16 06:44:43;;;;;;;36.20;21.90;;;6.80;99.90;;;;;;5053275;28;20827;-63
2021/11/16 06:47:12;;;;;;;34.80;21.30;;;6.70;99.90;;;;;;5051812;28;20567;-63
2021/11/16 06:49:40;;;;;;;37.00;21.00;;;6.70;99.90;;;;;;5052836;28;20474;-64
2021/11/16 06:52:08;;;;;;;28.60;18.40;;;6.70;99.90;;;;;;5052678;28;20506;-63
2021/11/16 06:54:37;;;;;;;35.97;21.23;;;6.70;99.90;;;;;;5052647;28;20452;-64
2021/11/16 06:57:04;;;;;;;28.43;19.90;;;6.70;99.90;;;;;;5051572;28;20476;-64
2021/11/16 06:59:31;;;;;;;33.17;20.93;;;6.80;99.90;;;;;;5052361;28;20451;-64
2021/11/16 07:01:58;;;;;;;32.60;20.03;;;6.80;99.90;;;;;;5052774;28;20480;-63
2021/11/16 07:04:34;;;;;;;28.80;19.13;;;6.70;99.90;;;;;;5052857;28;20667;-66
2021/11/16 07:07:01;;;;;;;31.07;19.47;;;6.80;99.90;;;;;;5051289;28;20834;-64
2021/11/16 07:09:35;;;;;;;38.00;21.97;;;6.80;99.90;;;;;;5052484;28;20452;-63
2021/11/16 07:12:09;;;;;;;34.50;19.97;;;6.80;99.90;;;;;;5052423;28;20452;-64
2021/11/16 07:14:37;;;;;;;34.10;19.30;;;6.80;99.90;;;;;;5052404;28;20459;-63
2021/11/16 07:17:06;;;;;;;31.77;17.60;;;6.80;99.90;;;;;;5051176;28;20473;-64
2021/11/16 07:19:36;;;;;;;27.60;17.70;;;6.80;99.90;;;;;;5052398;28;20957;-63
2021/11/16 07:22:07;;;;;;;31.37;18.47;;;6.80;99.90;;;;;;5052322;28;20506;-63
2021/11/16 07:24:45;;;;;;;27.47;19.00;;;6.80;99.90;;;;;;5052518;28;20460;-65
2021/11/16 07:27:14;;;;;;;25.40;17.27;;;6.80;99.90;;;;;;5051500;28;20486;-63
2021/11/16 07:29:44;;;;;;;31.17;20.00;;;6.90;99.90;;;;;;5052741;28;20455;-64
2021/11/16 07:32:14;;;;;;;31.40;18.30;;;6.90;99.90;;;;;;5052574;28;20437;-64
2021/11/16 07:34:43;;;;;;;32.20;17.90;;;6.90;99.90;;;;;;5052513;28;20536;-62
2021/11/16 07:37:13;;;;;;;25.53;16.50;;;6.90;99.90;;;;;;5051785;28;20475;-63
2021/11/16 07:40:02;;;;;;;26.47;15.87;;;6.90;99.90;;;;;;5052639;28;20451;-64
2021/11/16 07:42:33;;;;;;;24.57;16.70;;;7.00;99.90;;;;;;5047704;28;20480;-63
2021/11/16 07:45:09;;;;;;;24.63;16.67;;;7.10;99.90;;;;;;5052037;28;21098;-63
2021/11/16 07:47:45;;;;;;;24.03;17.13;;;7.00;99.90;;;;;;5050698;28;20460;-64
2021/11/16 07:50:16;;;;;;;26.97;17.07;;;7.10;99.90;;;;;;5051794;28;20453;-64
2021/11/16 07:52:45;;;;;;;26.80;16.27;;;7.10;99.90;;;;;;5051620;28;20447;-67
2021/11/16 07:55:20;;;;;;;27.20;17.73;;;7.10;99.90;;;;;;5051514;28;20820;-63
2021/11/16 07:57:48;;;;;;;23.83;15.10;;;7.10;99.90;;;;;;5050626;28;20473;-65
2021/11/16 08:00:20;;;;;;;22.97;14.17;;;7.20;99.90;;;;;;5051644;28;20536;-65
2021/11/16 08:02:51;;;;;;;21.70;14.70;;;7.30;99.90;;;;;;5051487;28;20571;-66
2021/11/16 08:05:30;;;;;;;20.37;13.23;;;7.30;99.90;;;;;;5051437;28;20543;-65
2021/11/16 08:08:15;;;;;;;22.73;15.27;;;7.40;99.90;;;;;;5050417;28;20468;-65
2021/11/16 08:10:45;;;;;;;25.63;16.00;;;7.40;99.90;;;;;;5051497;28;20460;-65
2021/11/16 08:13:26;;;;;;;22.53;14.30;;;7.40;99.90;;;;;;5051470;28;20539;-66
2021/11/16 08:15:53;;;;;;;21.77;14.63;;;7.50;99.90;;;;;;5051964;28;20813;-64
2021/11/16 08:18:19;;;;;;;22.50;14.40;;;7.50;99.90;;;;;;5050304;28;20451;-64
2021/11/16 08:20:46;;;;;;;21.50;15.07;;;7.50;99.90;;;;;;5049737;28;20535;-64
2021/11/16 08:23:13;;;;;;;22.43;14.77;;;7.50;99.90;;;;;;5051133;28;20570;-62
2021/11/16 08:25:40;;;;;;;20.63;14.70;;;7.50;99.90;;;;;;5051169;28;20450;-64
2021/11/16 08:28:10;;;;;;;23.40;14.30;;;7.50;99.90;;;;;;5049483;28;20456;-64
2021/11/16 08:30:39;;;;;;;25.17;14.80;;;7.50;99.90;;;;;;5050769;28;20825;-64
2021/11/16 08:33:06;;;;;;;25.53;14.57;;;7.60;99.90;;;;;;5051036;28;20494;-64
2021/11/16 08:35:35;;;;;;;23.07;15.77;;;7.70;99.90;;;;;;5051130;28;20502;-64
2021/11/16 08:38:03;;;;;;;20.57;13.80;;;7.70;99.90;;;;;;5049811;28;20480;-64
2021/11/16 08:40:36;;;;;;;20.07;15.13;;;7.70;99.90;;;;;;5051933;28;20449;-64
2021/11/16 08:43:12;;;;;;;21.87;13.90;;;7.70;99.90;;;;;;5051658;28;20551;-65
2021/11/16 08:45:46;;;;;;;22.70;16.20;;;7.80;99.90;;;;;;5051098;28;20452;-66
2021/11/16 08:48:16;;;;;;;22.20;14.43;;;7.70;99.90;;;;;;5049759;28;20436;-63
2021/11/16 08:50:45;;;;;;;21.70;13.67;;;7.70;99.90;;;;;;5050657;28;20488;-64
2021/11/16 08:53:13;;;;;;;20.80;15.37;;;7.70;99.90;;;;;;5050606;28;20463;-65
2021/11/16 08:55:42;;;;;;;19.17;13.60;;;7.80;99.90;;;;;;5051152;28;20807;-64
2021/11/16 08:58:11;;;;;;;19.93;13.80;;;7.80;99.90;;;;;;5049676;28;20444;-65
2021/11/16 09:00:42;;;;;;;20.90;14.10;;;7.80;99.90;;;;;;5050393;28;20457;-66
2021/11/16 09:03:11;;;;;;;20.60;12.90;;;7.80;99.90;;;;;;5050438;28;20478;-66
2021/11/16 09:05:41;;;;;;;19.57;13.37;;;7.80;99.90;;;;;;5050638;28;20476;-64
2021/11/16 09:08:14;;;;;;;19.20;12.83;;;7.90;99.90;;;;;;5049065;28;20571;-63
2021/11/16 09:10:43;;;;;;;17.60;12.70;;;7.90;99.90;;;;;;5050578;28;20471;-61
2021/11/16 09:13:11;;;;;;;19.40;12.43;;;7.90;99.90;;;;;;5050412;28;20436;-66
2021/11/16 09:15:41;;;;;;;18.57;12.57;;;7.80;99.90;;;;;;5050434;28;20546;-66
2021/11/16 09:18:11;;;;;;;15.90;11.20;;;7.80;99.90;;;;;;5049268;28;20441;-64
2021/11/16 09:20:39;;;;;;;20.97;13.43;;;7.70;99.90;;;;;;5050257;28;20454;-64
2021/11/16 09:23:08;;;;;;;19.77;13.00;;;7.70;99.90;;;;;;5050231;28;20484;-63
2021/11/16 09:25:40;;;;;;;22.43;13.73;;;7.70;99.90;;;;;;5050416;28;20455;-63
2021/11/16 09:28:28;;;;;;;23.93;13.20;;;7.80;99.90;;;;;;5049420;28;20448;-64
2021/11/16 09:30:57;;;;;;;18.73;12.00;;;7.80;99.90;;;;;;5050012;28;20476;-66
2021/11/16 09:33:23;;;;;;;20.20;14.20;;;7.90;99.90;;;;;;5050160;28;20441;-65
2021/11/16 09:35:54;;;;;;;19.50;12.43;;;8.00;99.90;;;;;;5050224;28;20441;-64
2021/11/16 09:38:49;;;;;;;24.07;14.27;;;8.00;99.90;;;;;;5049121;28;20552;-63
2021/11/16 09:41:22;;;;;;;21.67;13.70;;;8.00;99.90;;;;;;5050447;28;20449;-64
2021/11/16 09:44:05;;;;;;;22.80;14.80;;;7.90;99.90;;;;;;5049882;28;20488;-63
2021/11/16 09:46:42;;;;;;;19.47;14.60;;;7.80;99.90;;;;;;5049496;28;20575;-63
2021/11/16 09:49:14;;;;;;;24.47;14.57;;;7.80;99.90;;;;;;5050595;28;20444;-65
2021/11/16 09:51:42;;;;;;;22.30;14.80;;;7.90;99.90;;;;;;5052901;28;20501;-63
2021/11/16 09:54:11;;;;;;;21.10;13.83;;;7.80;99.90;;;;;;5050538;28;20478;-63
2021/11/16 09:56:38;;;;;;;24.73;15.10;;;7.80;99.90;;;;;;5048843;28;20776;-64
2021/11/16 09:59:06;;;;;;;22.40;14.90;;;7.90;99.90;;;;;;5049838;28;20440;-65
2021/11/16 10:01:40;;;;;;;21.33;13.67;;;7.90;99.90;;;;;;5049682;28;20452;-63
2021/11/16 10:04:10;;;;;;;23.93;15.10;;;8.00;99.90;;;;;;5049595;28;20553;-65
2021/11/16 10:06:37;;;;;;;21.10;14.03;;;8.00;99.90;;;;;;5048598;28;20479;-63
2021/11/16 10:09:05;;;;;;;22.80;14.03;;;8.00;99.90;;;;;;5049909;28;20470;-67
2021/11/16 10:11:33;;;;;;;23.57;14.40;;;8.00;99.90;;;;;;5049878;28;20829;-64
2021/11/16 10:14:00;;;;;;;24.10;14.70;;;8.00;99.90;;;;;;5050000;28;20799;-64
2021/11/16 10:16:27;;;;;;;26.20;14.03;;;8.00;99.90;;;;;;5049015;28;20470;-64
2021/11/16 10:18:55;;;;;;;20.00;12.60;;;8.10;99.90;;;;;;5049343;28;20935;-63
2021/11/16 10:21:22;;;;;;;17.43;12.00;;;8.10;99.90;;;;;;5049948;28;20523;-62
2021/11/16 10:23:51;;;;;;;19.73;12.23;;;8.10;99.90;;;;;;5049730;28;20567;-65
2021/11/16 10:26:18;;;;;;;16.43;11.57;;;8.20;99.90;;;;;;5049360;28;20468;-63
2021/11/16 10:28:48;;;;;;;16.97;11.13;;;8.10;99.90;;;;;;5049211;28;20446;-66
2021/11/16 10:31:15;;;;;;;18.57;11.20;;;8.00;99.90;;;;;;5049322;28;20444;-65
2021/11/16 10:33:44;;;;;;;15.48;10.70;;;8.00;99.90;;;;;;5049932;28;20467;-62
2021/11/16 10:36:14;;;;;;;18.20;10.53;;;8.00;99.90;;;;;;5049177;28;20222;-64
2021/11/16 10:38:44;;;;;;;16.70;10.00;;;8.10;99.90;;;;;;5049036;28;20450;-64
2021/11/16 10:41:17;;;;;;;20.53;11.83;;;8.20;99.90;;;;;;5049267;28;20982;-65
2021/11/16 10:43:49;;;;;;;15.15;9.15;;;8.10;99.90;;;;;;5049220;28;20497;-63
2021/11/16 10:46:18;;;;;;;13.30;9.80;;;8.10;99.90;;;;;;5049450;28;20649;-64
2021/11/16 10:48:46;;;;;;;15.73;10.00;;;8.20;99.90;;;;;;5050143;28;20445;-63
2021/11/16 10:51:16;;;;;;;12.00;8.67;;;8.20;99.90;;;;;;5049711;28;20459;-65
2021/11/16 10:53:49;;;;;;;12.67;8.57;;;8.20;99.90;;;;;;5050112;28;20452;-64
2021/11/16 10:56:18;;;;;;;18.30;9.53;;;8.10;99.90;;;;;;5049386;28;20551;-65
2021/11/16 10:58:46;;;;;;;15.70;9.50;;;8.10;99.90;;;;;;5052387;28;20535;-64
2021/11/16 11:01:14;;;;;;;14.73;8.73;;;8.10;99.90;;;;;;5052819;28;20518;-65
2021/11/16 11:03:44;;;;;;;14.50;8.60;;;8.10;99.90;;;;;;5052655;28;20494;-62
2021/11/16 11:06:15;;;;;;;14.20;9.33;;;8.10;99.90;;;;;;5052252;28;20997;-63
2021/11/16 11:08:45;;;;;;;13.97;8.03;;;8.10;99.90;;;;;;5052213;28;20478;-62
2021/11/16 11:11:20;;;;;;;21.60;8.53;;;8.10;99.90;;;;;;5052417;28;20470;-64
2021/11/16 11:13:49;;;;;;;11.90;7.83;;;8.20;99.90;;;;;;5052506;28;20440;-65
2021/11/16 11:16:18;;;;;;;12.57;8.03;;;8.20;99.90;;;;;;5051818;28;20472;-64
2021/11/16 11:18:48;;;;;;;13.13;8.43;;;8.20;99.90;;;;;;5051997;28;20818;-63
2021/11/16 11:21:40;;;;;;;13.00;8.37;;;8.30;99.90;;;;;;5052185;28;20494;-63
2021/11/16 11:24:21;;;;;;;10.90;7.60;;;8.40;99.90;;;;;;5052434;28;20483;-64
2021/11/16 11:26:55;;;;;;;12.30;8.37;;;8.40;99.90;;;;;;5051173;28;20475;-64
2021/11/16 11:29:31;;;;;;;11.93;6.83;;;8.40;99.90;;;;;;5052269;28;20453;-64
2021/11/16 11:32:02;;;;;;;12.50;8.30;;;8.40;99.90;;;;;;5053312;28;20479;-65
2021/11/16 11:34:41;;;;;;;13.53;7.67;;;8.30;99.90;;;;;;5052414;28;20444;-66
2021/11/16 11:37:15;;;;;;;11.37;7.70;;;8.20;99.90;;;;;;5050859;28;20494;-65
2021/11/16 11:39:42;;;;;;;9.87;6.47;;;8.30;99.90;;;;;;5052257;28;20451;-65
2021/11/16 11:42:13;;;;;;;12.03;7.60;;;8.30;99.90;;;;;;5051794;28;20449;-64
2021/11/16 11:44:47;;;;;;;11.00;7.17;;;8.40;99.90;;;;;;5052096;28;20491;-65
2021/11/16 11:47:27;;;;;;;11.70;7.50;;;8.30;99.90;;;;;;5051078;28;20472;-63
2021/11/16 11:49:56;;;;;;;12.83;9.20;;;8.20;99.90;;;;;;5051868;28;20448;-65
2021/11/16 11:52:25;;;;;;;10.87;7.33;;;8.20;99.90;;;;;;5052254;28;20452;-66
2021/11/16 11:54:52;;;;;;;11.50;7.60;;;8.20;99.90;;;;;;5051534;28;20872;-66
2021/11/16 11:57:19;;;;;;;14.57;8.00;;;8.10;99.90;;;;;;5050657;28;20540;-63
2021/11/16 11:59:46;;;;;;;10.10;7.63;;;8.00;99.90;;;;;;5051517;28;20946;-63
2021/11/16 12:02:14;;;;;;;12.47;8.00;;;8.00;99.90;;;;;;5051782;28;20453;-65
2021/11/16 12:04:41;;;;;;;10.57;6.90;;;8.00;99.90;;;;;;5051500;28;20480;-63
2021/11/16 12:07:08;;;;;;;9.97;6.80;;;8.10;99.90;;;;;;5050160;28;20473;-64
2021/11/16 12:09:38;;;;;;;10.40;7.33;;;8.10;99.90;;;;;;5050550;28;20483;-64
2021/11/16 12:12:06;;;;;;;10.77;7.33;;;8.10;99.90;;;;;;5051452;28;20463;-65
2021/11/16 12:14:43;;;;;;;10.87;7.27;;;8.10;99.90;;;;;;5051433;28;20456;-63
2021/11/16 12:17:13;;;;;;;12.37;8.23;;;8.10;99.90;;;;;;5050098;28;20460;-64
2021/11/16 12:19:43;;;;;;;12.50;7.57;;;8.20;99.90;;;;;;5050982;28;20858;-64
2021/11/16 12:22:25;;;;;;;11.63;8.30;;;8.10;99.90;;;;;;5051287;28;20445;-65
2021/11/16 12:25:00;;;;;;;9.80;6.20;;;8.20;99.90;;;;;;5051159;28;20881;-66
2021/11/16 12:27:33;;;;;;;8.97;7.07;;;8.20;99.90;;;;;;5049948;28;20547;-65
2021/11/16 12:30:01;;;;;;;10.57;7.70;;;8.30;99.90;;;;;;5051038;28;20450;-66
2021/11/16 12:32:30;;;;;;;10.90;6.90;;;8.40;99.90;;;;;;5050951;28;20533;-62
2021/11/16 12:35:03;;;;;;;11.13;7.27;;;8.40;99.90;;;;;;5051141;28;20822;-65
2021/11/16 12:37:42;;;;;;;13.33;7.37;;;8.40;99.90;;;;;;5049816;28;20474;-66
2021/11/16 12:40:23;;;;;;;13.57;8.17;;;8.40;99.90;;;;;;5051272;28;20444;-65
2021/11/16 12:43:23;;;;;;;9.90;7.43;;;8.40;99.90;;;;;;5050755;28;20822;-65
2021/11/16 12:45:52;;;;;;;10.57;6.53;;;8.50;99.90;;;;;;4989012;28;20438;-64
2021/11/16 12:48:21;;;;;;;9.13;6.50;;;8.50;99.90;;;;;;5037180;28;20460;-65
2021/11/16 12:51:09;;;;;;;9.13;5.90;;;8.50;99.90;;;;;;5050738;28;20866;-65
2021/11/16 12:53:55;;;;;;;9.40;6.50;;;8.60;99.90;;;;;;5050859;28;20462;-65
2021/11/16 12:56:25;;;;;;;8.70;6.90;;;8.50;99.90;;;;;;5050235;28;20484;-64